Ana Sayfa
METAR-TAF:

METAR-TAF

Havaalanları :

Upington, Güney Afrika

Enlem: 28-24S, Boylam: 021-16E, yükseklik: 839 m

Güncel hava durumu gözlemi

Rapor saat 07:00 UTC de 29 dakika önce yapıldı.
Rüzgar kuzey/kuzeybatıdan 3 kt
Sıcaklık 19°C
Nem 21%
Basınç 1022 hPa
Görüş mesafesi 10 km veya daha fazla
1500 m altında bulut yok ve kümülonimbus yok

METAR: FAUP 150700Z 34003KT CAVOK 19/M04 Q1022 NOSIG

Saat: 09:29 (07:29 UTC)

Tahmin

Rapor saat 04:00 UTC de 3 saat ve 29 dakika önce yapıldı.
Ayın 15'si saat 06 UTC'den ayın 16'si saat 06 UTC'ye kadar geçerli Tahmin
Rüzgar değişken yönden 3 kt
Görüş mesafesi 10 km veya daha fazla
1500 m altında bulut yok ve kümülonimbus yok

TAF: FAUP 150400Z 1506/1606 VRB03KT CAVOK TX31/1512Z TN12/1604Z

4.000'den fazla havaalanı için hava durumu gözlemleri ve tahminleri (METAR ve TAF raporları).

Kullanılabilir istasyonlar harita üzerinde sarı ve kırmızı noktalarla gösterilir.

İstasyonun adını görmek için fareyi noktanın üzerinde gezdirin.

Sonrasında hava gözlem ve tahminlerini görmek için tıklayın.

Haritayı değiştirmek için: yaklaştırmak için siyah artı işaretli yeşil düğmeye ve uzaklaştırmak için de eksi işaretli düğmeye hızla tıklayın; bitişik haritalar için yeşil okları kullanın.


METAR-TAF: